sensor_id;sensor_type;location;lat;lon;timestamp;pressure;altitude;pressure_sealevel;temperature;humidity
77110;BME280;66062;52.464;16.922;2023-11-19T00:00:07;101164.25;;;1.10;100.00
77110;BME280;66062;52.464;16.922;2023-11-19T00:02:38;101161.34;;;0.96;100.00
77110;BME280;66062;52.464;16.922;2023-11-19T00:05:03;101148.06;;;0.99;100.00
77110;BME280;66062;52.464;16.922;2023-11-19T00:07:29;101149.44;;;0.87;100.00
77110;BME280;66062;52.464;16.922;2023-11-19T00:09:54;101135.53;;;0.85;100.00
77110;BME280;66062;52.464;16.922;2023-11-19T00:12:20;101113.53;;;0.88;100.00
77110;BME280;66062;52.464;16.922;2023-11-19T00:14:46;101112.81;;;0.84;100.00
77110;BME280;66062;52.464;16.922;2023-11-19T00:17:11;101110.50;;;0.97;100.00
77110;BME280;66062;52.464;16.922;2023-11-19T00:19:36;101114.91;;;0.96;100.00
77110;BME280;66062;52.464;16.922;2023-11-19T00:22:02;101104.91;;;1.04;100.00
77110;BME280;66062;52.464;16.922;2023-11-19T00:24:28;101102.25;;;0.85;100.00
77110;BME280;66062;52.464;16.922;2023-11-19T00:26:54;101100.28;;;0.91;100.00
77110;BME280;66062;52.464;16.922;2023-11-19T00:29:19;101085.19;;;0.75;100.00
77110;BME280;66062;52.464;16.922;2023-11-19T00:31:45;101096.00;;;0.88;100.00
77110;BME280;66062;52.464;16.922;2023-11-19T00:34:10;101089.22;;;0.82;100.00
77110;BME280;66062;52.464;16.922;2023-11-19T00:36:37;101088.31;;;0.83;100.00
77110;BME280;66062;52.464;16.922;2023-11-19T00:39:02;101083.56;;;0.71;100.00
77110;BME280;66062;52.464;16.922;2023-11-19T00:41:28;101063.38;;;0.73;100.00
77110;BME280;66062;52.464;16.922;2023-11-19T00:43:53;101059.88;;;0.73;100.00
77110;BME280;66062;52.464;16.922;2023-11-19T00:46:18;101056.78;;;0.83;100.00
77110;BME280;66062;52.464;16.922;2023-11-19T00:48:45;101051.41;;;0.66;100.00
77110;BME280;66062;52.464;16.922;2023-11-19T00:51:12;101038.41;;;0.83;100.00
77110;BME280;66062;52.464;16.922;2023-11-19T00:53:38;101042.31;;;0.94;100.00
77110;BME280;66062;52.464;16.922;2023-11-19T00:56:03;101031.09;;;0.90;100.00
77110;BME280;66062;52.464;16.922;2023-11-19T00:58:29;101021.31;;;0.94;100.00
77110;BME280;66062;52.464;16.922;2023-11-19T01:00:54;101012.03;;;1.05;100.00
77110;BME280;66062;52.464;16.922;2023-11-19T01:03:22;101001.13;;;0.94;100.00
77110;BME280;66062;52.464;16.922;2023-11-19T01:05:47;101007.88;;;0.81;100.00
77110;BME280;66062;52.464;16.922;2023-11-19T01:08:13;100995.50;;;0.83;100.00
77110;BME280;66062;52.464;16.922;2023-11-19T01:10:40;100985.34;;;0.75;100.00
77110;BME280;66062;52.464;16.922;2023-11-19T01:13:05;100982.44;;;0.81;100.00
77110;BME280;66062;52.464;16.922;2023-11-19T01:15:34;100976.41;;;0.79;100.00
77110;BME280;66062;52.464;16.922;2023-11-19T01:17:59;100981.88;;;0.94;100.00
77110;BME280;66062;52.464;16.922;2023-11-19T01:20:27;100990.97;;;0.86;100.00
77110;BME280;66062;52.464;16.922;2023-11-19T01:22:52;100988.06;;;0.93;100.00
77110;BME280;66062;52.464;16.922;2023-11-19T01:25:18;100986.66;;;1.04;100.00
77110;BME280;66062;52.464;16.922;2023-11-19T01:27:43;100993.19;;;1.14;100.00
77110;BME280;66062;52.464;16.922;2023-11-19T01:30:09;100975.72;;;1.13;100.00
77110;BME280;66062;52.464;16.922;2023-11-19T01:32:38;100976.72;;;1.11;100.00
77110;BME280;66062;52.464;16.922;2023-11-19T01:35:03;100977.47;;;1.13;100.00
77110;BME280;66062;52.464;16.922;2023-11-19T01:37:29;100972.50;;;1.07;100.00
77110;BME280;66062;52.464;16.922;2023-11-19T01:39:55;100972.88;;;1.18;100.00
77110;BME280;66062;52.464;16.922;2023-11-19T01:42:20;100969.88;;;1.07;100.00
77110;BME280;66062;52.464;16.922;2023-11-19T01:45:04;100956.09;;;1.02;100.00
77110;BME280;66062;52.464;16.922;2023-11-19T01:47:32;100932.41;;;0.84;100.00
77110;BME280;66062;52.464;16.922;2023-11-19T01:49:58;100914.22;;;0.99;100.00
77110;BME280;66062;52.464;16.922;2023-11-19T01:52:25;100910.38;;;1.06;100.00
77110;BME280;66062;52.464;16.922;2023-11-19T01:54:52;100909.19;;;0.94;100.00
77110;BME280;66062;52.464;16.922;2023-11-19T01:57:20;100905.97;;;0.88;100.00
77110;BME280;66062;52.464;16.922;2023-11-19T01:59:46;100905.13;;;1.06;100.00
77110;BME280;66062;52.464;16.922;2023-11-19T02:02:11;100905.81;;;1.09;100.00
77110;BME280;66062;52.464;16.922;2023-11-19T02:04:38;100899.91;;;1.23;100.00
77110;BME280;66062;52.464;16.922;2023-11-19T02:07:04;100890.19;;;1.25;100.00
77110;BME280;66062;52.464;16.922;2023-11-19T02:09:29;100887.91;;;1.17;100.00
77110;BME280;66062;52.464;16.922;2023-11-19T02:11:55;100879.09;;;1.18;100.00
77110;BME280;66062;52.464;16.922;2023-11-19T02:14:25;100868.97;;;1.28;100.00
77110;BME280;66062;52.464;16.922;2023-11-19T02:16:51;100873.53;;;1.24;100.00
77110;BME280;66062;52.464;16.922;2023-11-19T02:19:20;100870.28;;;1.19;100.00
77110;BME280;66062;52.464;16.922;2023-11-19T02:21:45;100857.84;;;1.23;100.00
77110;BME280;66062;52.464;16.922;2023-11-19T02:24:12;100863.50;;;1.33;100.00
77110;BME280;66062;52.464;16.922;2023-11-19T02:26:44;100853.38;;;1.25;100.00
77110;BME280;66062;52.464;16.922;2023-11-19T02:29:13;100844.22;;;1.15;100.00
77110;BME280;66062;52.464;16.922;2023-11-19T02:31:38;100843.31;;;1.16;100.00
77110;BME280;66062;52.464;16.922;2023-11-19T02:34:03;100846.91;;;1.32;100.00
77110;BME280;66062;52.464;16.922;2023-11-19T02:36:29;100836.16;;;1.37;100.00
77110;BME280;66062;52.464;16.922;2023-11-19T02:38:54;100835.28;;;1.36;100.00
77110;BME280;66062;52.464;16.922;2023-11-19T02:41:20;100833.00;;;1.47;100.00
77110;BME280;66062;52.464;16.922;2023-11-19T02:43:45;100835.91;;;1.41;100.00
77110;BME280;66062;52.464;16.922;2023-11-19T02:46:13;100832.88;;;1.49;100.00
77110;BME280;66062;52.464;16.922;2023-11-19T02:48:39;100827.88;;;1.44;100.00
77110;BME280;66062;52.464;16.922;2023-11-19T02:51:05;100813.34;;;1.37;100.00
77110;BME280;66062;52.464;16.922;2023-11-19T02:53:35;100809.75;;;1.38;100.00
77110;BME280;66062;52.464;16.922;2023-11-19T02:56:00;100789.72;;;1.18;100.00
77110;BME280;66062;52.464;16.922;2023-11-19T02:58:42;100791.50;;;1.18;100.00
77110;BME280;66062;52.464;16.922;2023-11-19T03:01:10;100800.94;;;1.39;100.00
77110;BME280;66062;52.464;16.922;2023-11-19T03:03:44;100786.44;;;1.32;100.00
77110;BME280;66062;52.464;16.922;2023-11-19T03:06:14;100787.25;;;1.33;100.00
77110;BME280;66062;52.464;16.922;2023-11-19T03:08:39;100767.56;;;1.41;100.00
77110;BME280;66062;52.464;16.922;2023-11-19T03:11:05;100763.69;;;1.31;100.00
77110;BME280;66062;52.464;16.922;2023-11-19T03:13:30;100750.69;;;1.45;100.00
77110;BME280;66062;52.464;16.922;2023-11-19T03:15:56;100745.66;;;1.41;100.00
77110;BME280;66062;52.464;16.922;2023-11-19T03:18:23;100741.34;;;1.40;100.00
77110;BME280;66062;52.464;16.922;2023-11-19T03:20:48;100734.91;;;1.28;100.00
77110;BME280;66062;52.464;16.922;2023-11-19T03:23:14;100736.31;;;1.35;100.00
77110;BME280;66062;52.464;16.922;2023-11-19T03:25:40;100734.84;;;1.29;100.00
77110;BME280;66062;52.464;16.922;2023-11-19T03:28:05;100729.66;;;1.28;100.00
77110;BME280;66062;52.464;16.922;2023-11-19T03:30:31;100723.09;;;1.37;100.00
77110;BME280;66062;52.464;16.922;2023-11-19T03:32:57;100725.56;;;1.22;100.00
77110;BME280;66062;52.464;16.922;2023-11-19T03:35:23;100700.44;;;1.17;100.00
77110;BME280;66062;52.464;16.922;2023-11-19T03:37:50;100695.09;;;1.18;100.00
77110;BME280;66062;52.464;16.922;2023-11-19T03:40:16;100684.34;;;1.23;100.00
77110;BME280;66062;52.464;16.922;2023-11-19T03:42:41;100673.09;;;1.21;100.00
77110;BME280;66062;52.464;16.922;2023-11-19T03:45:07;100665.50;;;1.32;100.00
77110;BME280;66062;52.464;16.922;2023-11-19T03:47:36;100655.91;;;1.14;100.00
77110;BME280;66062;52.464;16.922;2023-11-19T03:50:02;100657.63;;;1.15;100.00
77110;BME280;66062;52.464;16.922;2023-11-19T03:52:28;100645.09;;;1.20;100.00
77110;BME280;66062;52.464;16.922;2023-11-19T03:54:54;100647.16;;;1.31;100.00
77110;BME280;66062;52.464;16.922;2023-11-19T03:57:20;100661.78;;;1.36;100.00
77110;BME280;66062;52.464;16.922;2023-11-19T03:59:46;100641.91;;;1.31;100.00
77110;BME280;66062;52.464;16.922;2023-11-19T04:02:11;100643.19;;;1.39;100.00
77110;BME280;66062;52.464;16.922;2023-11-19T04:04:37;100624.66;;;1.42;100.00
77110;BME280;66062;52.464;16.922;2023-11-19T04:07:05;100621.78;;;1.47;100.00
77110;BME280;66062;52.464;16.922;2023-11-19T04:09:31;100622.03;;;1.42;100.00
77110;BME280;66062;52.464;16.922;2023-11-19T04:12:00;100629.91;;;1.42;100.00
77110;BME280;66062;52.464;16.922;2023-11-19T04:14:26;100627.06;;;1.29;100.00
77110;BME280;66062;52.464;16.922;2023-11-19T04:16:52;100618.78;;;1.37;100.00
77110;BME280;66062;52.464;16.922;2023-11-19T04:19:18;100613.91;;;1.29;100.00
77110;BME280;66062;52.464;16.922;2023-11-19T04:21:44;100615.44;;;1.34;100.00
77110;BME280;66062;52.464;16.922;2023-11-19T04:24:09;100614.78;;;1.30;100.00
77110;BME280;66062;52.464;16.922;2023-11-19T04:26:43;100602.06;;;1.38;100.00
77110;BME280;66062;52.464;16.922;2023-11-19T04:29:14;100585.88;;;1.46;100.00
77110;BME280;66062;52.464;16.922;2023-11-19T04:31:42;100598.06;;;1.31;100.00
77110;BME280;66062;52.464;16.922;2023-11-19T04:34:07;100594.06;;;1.24;100.00
77110;BME280;66062;52.464;16.922;2023-11-19T04:36:33;100590.97;;;1.49;100.00
77110;BME280;66062;52.464;16.922;2023-11-19T04:39:00;100599.69;;;1.49;100.00
77110;BME280;66062;52.464;16.922;2023-11-19T04:41:26;100602.25;;;1.51;100.00
77110;BME280;66062;52.464;16.922;2023-11-19T04:43:55;100592.25;;;1.42;100.00
77110;BME280;66062;52.464;16.922;2023-11-19T04:46:21;100584.19;;;1.45;100.00
77110;BME280;66062;52.464;16.922;2023-11-19T04:48:46;100590.88;;;1.50;100.00
77110;BME280;66062;52.464;16.922;2023-11-19T04:51:12;100592.91;;;1.45;100.00
77110;BME280;66062;52.464;16.922;2023-11-19T04:53:38;100582.06;;;1.36;100.00
77110;BME280;66062;52.464;16.922;2023-11-19T04:56:12;100574.34;;;1.48;100.00
77110;BME280;66062;52.464;16.922;2023-11-19T04:58:38;100584.06;;;1.31;100.00
77110;BME280;66062;52.464;16.922;2023-11-19T05:01:04;100581.16;;;1.52;100.00
77110;BME280;66062;52.464;16.922;2023-11-19T05:03:32;100573.72;;;1.43;100.00
77110;BME280;66062;52.464;16.922;2023-11-19T05:05:58;100573.13;;;1.38;100.00
77110;BME280;66062;52.464;16.922;2023-11-19T05:08:24;100557.81;;;1.46;100.00
77110;BME280;66062;52.464;16.922;2023-11-19T05:10:49;100553.56;;;1.44;100.00
77110;BME280;66062;52.464;16.922;2023-11-19T05:13:15;100550.00;;;1.45;100.00
77110;BME280;66062;52.464;16.922;2023-11-19T05:15:41;100535.31;;;1.25;100.00
77110;BME280;66062;52.464;16.922;2023-11-19T05:18:06;100525.66;;;1.41;100.00
77110;BME280;66062;52.464;16.922;2023-11-19T05:20:32;100520.28;;;1.27;100.00
77110;BME280;66062;52.464;16.922;2023-11-19T05:22:57;100515.41;;;1.37;100.00
77110;BME280;66062;52.464;16.922;2023-11-19T05:25:26;100524.28;;;1.34;100.00
77110;BME280;66062;52.464;16.922;2023-11-19T05:27:52;100518.50;;;1.43;100.00
77110;BME280;66062;52.464;16.922;2023-11-19T05:30:17;100515.03;;;1.43;100.00
77110;BME280;66062;52.464;16.922;2023-11-19T05:32:43;100500.81;;;1.31;100.00
77110;BME280;66062;52.464;16.922;2023-11-19T05:35:08;100494.09;;;1.41;100.00
77110;BME280;66062;52.464;16.922;2023-11-19T05:37:34;100477.56;;;1.39;100.00
77110;BME280;66062;52.464;16.922;2023-11-19T05:40:00;100479.09;;;1.43;100.00
77110;BME280;66062;52.464;16.922;2023-11-19T05:42:28;100467.13;;;1.38;100.00
77110;BME280;66062;52.464;16.922;2023-11-19T05:44:53;100464.00;;;1.47;100.00
77110;BME280;66062;52.464;16.922;2023-11-19T05:47:19;100460.09;;;1.38;100.00
77110;BME280;66062;52.464;16.922;2023-11-19T05:49:44;100447.84;;;1.53;100.00
77110;BME280;66062;52.464;16.922;2023-11-19T05:52:09;100445.00;;;1.42;100.00
77110;BME280;66062;52.464;16.922;2023-11-19T05:54:37;100439.75;;;1.26;100.00
77110;BME280;66062;52.464;16.922;2023-11-19T05:57:04;100422.63;;;1.35;100.00
77110;BME280;66062;52.464;16.922;2023-11-19T05:59:30;100414.03;;;1.47;100.00
77110;BME280;66062;52.464;16.922;2023-11-19T06:01:57;100416.69;;;1.31;100.00
77110;BME280;66062;52.464;16.922;2023-11-19T06:04:23;100414.13;;;1.45;100.00
77110;BME280;66062;52.464;16.922;2023-11-19T06:06:51;100413.09;;;1.48;100.00
77110;BME280;66062;52.464;16.922;2023-11-19T06:09:16;100406.16;;;1.47;100.00
77110;BME280;66062;52.464;16.922;2023-11-19T06:11:43;100418.13;;;1.37;100.00
77110;BME280;66062;52.464;16.922;2023-11-19T06:14:09;100403.78;;;1.42;100.00
77110;BME280;66062;52.464;16.922;2023-11-19T06:16:35;100402.94;;;1.42;100.00
77110;BME280;66062;52.464;16.922;2023-11-19T06:19:02;100404.72;;;1.41;100.00
77110;BME280;66062;52.464;16.922;2023-11-19T06:21:27;100402.09;;;1.41;100.00
77110;BME280;66062;52.464;16.922;2023-11-19T06:23:52;100396.91;;;1.40;100.00
77110;BME280;66062;52.464;16.922;2023-11-19T06:26:18;100388.50;;;1.49;100.00
77110;BME280;66062;52.464;16.922;2023-11-19T06:28:44;100378.16;;;1.46;100.00
77110;BME280;66062;52.464;16.922;2023-11-19T06:31:09;100367.19;;;1.53;100.00
77110;BME280;66062;52.464;16.922;2023-11-19T06:33:35;100366.00;;;1.59;100.00
77110;BME280;66062;52.464;16.922;2023-11-19T06:36:00;100352.13;;;1.71;100.00
77110;BME280;66062;52.464;16.922;2023-11-19T06:38:26;100365.72;;;1.63;100.00
77110;BME280;66062;52.464;16.922;2023-11-19T06:40:51;100351.72;;;1.63;100.00
77110;BME280;66062;52.464;16.922;2023-11-19T06:43:16;100353.97;;;1.55;100.00
77110;BME280;66062;52.464;16.922;2023-11-19T06:45:43;100348.25;;;1.62;100.00
77110;BME280;66062;52.464;16.922;2023-11-19T06:48:08;100339.13;;;1.68;100.00
77110;BME280;66062;52.464;16.922;2023-11-19T06:50:34;100324.09;;;1.56;100.00
77110;BME280;66062;52.464;16.922;2023-11-19T06:52:59;100329.59;;;1.67;100.00
77110;BME280;66062;52.464;16.922;2023-11-19T06:55:26;100326.69;;;1.71;100.00
77110;BME280;66062;52.464;16.922;2023-11-19T06:57:52;100332.38;;;1.64;100.00
77110;BME280;66062;52.464;16.922;2023-11-19T07:00:17;100325.25;;;1.66;100.00
77110;BME280;66062;52.464;16.922;2023-11-19T07:02:43;100320.06;;;1.64;100.00
77110;BME280;66062;52.464;16.922;2023-11-19T07:05:09;100312.09;;;1.66;100.00
77110;BME280;66062;52.464;16.922;2023-11-19T07:07:35;100308.25;;;1.71;100.00
77110;BME280;66062;52.464;16.922;2023-11-19T07:10:01;100298.66;;;1.70;100.00
77110;BME280;66062;52.464;16.922;2023-11-19T07:12:27;100296.13;;;1.69;100.00
77110;BME280;66062;52.464;16.922;2023-11-19T07:14:53;100283.16;;;1.66;100.00
77110;BME280;66062;52.464;16.922;2023-11-19T07:17:20;100260.16;;;1.69;100.00
77110;BME280;66062;52.464;16.922;2023-11-19T07:19:47;100261.28;;;1.80;100.00
77110;BME280;66062;52.464;16.922;2023-11-19T07:22:12;100263.47;;;1.87;100.00
77110;BME280;66062;52.464;16.922;2023-11-19T07:24:40;100256.22;;;1.91;100.00
77110;BME280;66062;52.464;16.922;2023-11-19T07:27:07;100260.44;;;1.93;100.00
77110;BME280;66062;52.464;16.922;2023-11-19T07:29:34;100251.31;;;1.99;100.00
77110;BME280;66062;52.464;16.922;2023-11-19T07:31:59;100252.94;;;2.01;100.00
77110;BME280;66062;52.464;16.922;2023-11-19T07:34:27;100246.91;;;1.99;100.00
77110;BME280;66062;52.464;16.922;2023-11-19T07:36:52;100243.25;;;1.88;100.00
77110;BME280;66062;52.464;16.922;2023-11-19T07:39:17;100245.50;;;2.08;100.00
77110;BME280;66062;52.464;16.922;2023-11-19T07:41:43;100239.84;;;2.00;100.00
77110;BME280;66062;52.464;16.922;2023-11-19T07:44:08;100239.13;;;1.98;100.00
77110;BME280;66062;52.464;16.922;2023-11-19T07:46:34;100230.94;;;2.02;100.00
77110;BME280;66062;52.464;16.922;2023-11-19T07:48:59;100226.38;;;2.19;100.00
77110;BME280;66062;52.464;16.922;2023-11-19T07:51:24;100233.28;;;2.07;100.00
77110;BME280;66062;52.464;16.922;2023-11-19T07:53:50;100225.47;;;2.20;100.00
77110;BME280;66062;52.464;16.922;2023-11-19T07:56:15;100218.03;;;2.26;100.00
77110;BME280;66062;52.464;16.922;2023-11-19T07:58:41;100221.34;;;2.15;100.00
77110;BME280;66062;52.464;16.922;2023-11-19T08:01:07;100222.66;;;2.23;100.00
77110;BME280;66062;52.464;16.922;2023-11-19T08:03:32;100205.91;;;2.09;100.00
77110;BME280;66062;52.464;16.922;2023-11-19T08:05:59;100210.41;;;2.22;100.00
77110;BME280;66062;52.464;16.922;2023-11-19T08:08:25;100205.63;;;2.28;100.00
77110;BME280;66062;52.464;16.922;2023-11-19T08:10:51;100196.75;;;2.29;100.00
77110;BME280;66062;52.464;16.922;2023-11-19T08:13:19;100194.69;;;2.34;100.00
77110;BME280;66062;52.464;16.922;2023-11-19T08:15:45;100177.56;;;2.41;99.47
77110;BME280;66062;52.464;16.922;2023-11-19T08:18:11;100173.22;;;2.40;99.70
77110;BME280;66062;52.464;16.922;2023-11-19T08:20:36;100167.41;;;2.35;99.80
77110;BME280;66062;52.464;16.922;2023-11-19T08:23:02;100173.03;;;2.43;100.00
77110;BME280;66062;52.464;16.922;2023-11-19T08:25:29;100159.66;;;2.46;99.72
77110;BME280;66062;52.464;16.922;2023-11-19T08:27:54;100147.25;;;2.48;99.80
77110;BME280;66062;52.464;16.922;2023-11-19T08:30:19;100146.81;;;2.54;100.00
77110;BME280;66062;52.464;16.922;2023-11-19T08:32:45;100139.81;;;2.68;99.35
77110;BME280;66062;52.464;16.922;2023-11-19T08:35:10;100138.06;;;2.54;99.19
77110;BME280;66062;52.464;16.922;2023-11-19T08:37:36;100132.53;;;2.58;99.50
77110;BME280;66062;52.464;16.922;2023-11-19T08:40:02;100118.34;;;2.74;98.95
77110;BME280;66062;52.464;16.922;2023-11-19T08:42:29;100125.50;;;2.72;99.56
77110;BME280;66062;52.464;16.922;2023-11-19T08:44:55;100109.72;;;2.45;100.00
77110;BME280;66062;52.464;16.922;2023-11-19T08:47:20;100117.00;;;2.54;100.00
77110;BME280;66062;52.464;16.922;2023-11-19T08:49:50;100113.84;;;2.49;100.00
77110;BME280;66062;52.464;16.922;2023-11-19T08:52:15;100115.22;;;2.54;100.00
77110;BME280;66062;52.464;16.922;2023-11-19T08:54:42;100112.91;;;2.50;100.00
77110;BME280;66062;52.464;16.922;2023-11-19T08:57:08;100106.75;;;2.37;100.00
77110;BME280;66062;52.464;16.922;2023-11-19T08:59:34;100109.34;;;2.24;100.00
77110;BME280;66062;52.464;16.922;2023-11-19T09:01:59;100107.16;;;2.31;100.00
77110;BME280;66062;52.464;16.922;2023-11-19T09:04:25;100104.88;;;2.12;100.00
77110;BME280;66062;52.464;16.922;2023-11-19T09:06:50;100106.56;;;2.13;100.00
77110;BME280;66062;52.464;16.922;2023-11-19T09:09:16;100092.88;;;2.08;100.00
77110;BME280;66062;52.464;16.922;2023-11-19T09:11:41;100089.69;;;2.03;100.00
77110;BME280;66062;52.464;16.922;2023-11-19T09:14:07;100089.88;;;2.00;100.00
77110;BME280;66062;52.464;16.922;2023-11-19T09:16:33;100083.66;;;2.01;100.00
77110;BME280;66062;52.464;16.922;2023-11-19T09:18:58;100075.44;;;1.93;100.00
77110;BME280;66062;52.464;16.922;2023-11-19T09:21:28;100072.81;;;1.79;100.00
77110;BME280;66062;52.464;16.922;2023-11-19T09:23:56;100068.09;;;1.84;100.00
77110;BME280;66062;52.464;16.922;2023-11-19T09:26:22;100066.88;;;1.89;100.00
77110;BME280;66062;52.464;16.922;2023-11-19T09:28:47;100065.13;;;1.76;100.00
77110;BME280;66062;52.464;16.922;2023-11-19T09:31:14;100060.63;;;1.78;100.00
77110;BME280;66062;52.464;16.922;2023-11-19T09:33:42;100057.63;;;1.69;100.00
77110;BME280;66062;52.464;16.922;2023-11-19T09:36:12;100053.56;;;1.78;100.00
77110;BME280;66062;52.464;16.922;2023-11-19T09:38:45;100047.88;;;1.71;100.00
77110;BME280;66062;52.464;16.922;2023-11-19T09:41:11;100046.94;;;1.58;100.00
77110;BME280;66062;52.464;16.922;2023-11-19T09:43:41;100052.06;;;1.74;100.00
77110;BME280;66062;52.464;16.922;2023-11-19T09:46:10;100043.75;;;1.67;100.00
77110;BME280;66062;52.464;16.922;2023-11-19T09:48:39;100046.84;;;1.60;100.00
77110;BME280;66062;52.464;16.922;2023-11-19T09:51:09;100033.50;;;1.63;100.00
77110;BME280;66062;52.464;16.922;2023-11-19T09:53:35;100037.38;;;1.57;100.00
77110;BME280;66062;52.464;16.922;2023-11-19T09:56:02;100036.16;;;1.49;100.00
77110;BME280;66062;52.464;16.922;2023-11-19T09:58:29;100036.75;;;1.40;100.00
77110;BME280;66062;52.464;16.922;2023-11-19T10:00:55;100027.63;;;1.45;100.00
77110;BME280;66062;52.464;16.922;2023-11-19T10:03:22;100034.47;;;1.48;100.00
77110;BME280;66062;52.464;16.922;2023-11-19T10:05:48;100014.09;;;1.51;100.00
77110;BME280;66062;52.464;16.922;2023-11-19T10:08:13;100008.16;;;1.48;100.00
77110;BME280;66062;52.464;16.922;2023-11-19T10:10:39;100013.56;;;1.46;100.00
77110;BME280;66062;52.464;16.922;2023-11-19T10:13:05;100005.28;;;1.52;100.00
77110;BME280;66062;52.464;16.922;2023-11-19T10:15:35;100002.38;;;1.43;100.00
77110;BME280;66062;52.464;16.922;2023-11-19T10:18:02;100002.53;;;1.54;100.00
77110;BME280;66062;52.464;16.922;2023-11-19T10:20:35;100001.25;;;1.47;100.00
77110;BME280;66062;52.464;16.922;2023-11-19T10:23:00;99996.47;;;1.39;100.00
77110;BME280;66062;52.464;16.922;2023-11-19T10:25:27;99997.41;;;1.38;100.00
77110;BME280;66062;52.464;16.922;2023-11-19T10:27:53;99981.25;;;1.44;100.00
77110;BME280;66062;52.464;16.922;2023-11-19T10:30:27;99976.06;;;1.43;100.00
77110;BME280;66062;52.464;16.922;2023-11-19T10:33:09;99969.44;;;1.37;100.00
77110;BME280;66062;52.464;16.922;2023-11-19T10:35:54;99967.75;;;1.36;100.00
77110;BME280;66062;52.464;16.922;2023-11-19T10:38:24;99967.63;;;1.52;100.00
77110;BME280;66062;52.464;16.922;2023-11-19T10:40:51;99974.28;;;1.43;100.00
77110;BME280;66062;52.464;16.922;2023-11-19T10:43:17;99965.84;;;1.38;100.00
77110;BME280;66062;52.464;16.922;2023-11-19T10:45:43;99962.94;;;1.43;100.00
77110;BME280;66062;52.464;16.922;2023-11-19T10:48:09;99944.09;;;1.22;100.00
77110;BME280;66062;52.464;16.922;2023-11-19T10:50:40;99898.31;;;1.26;100.00
77110;BME280;66062;52.464;16.922;2023-11-19T10:53:07;99911.22;;;1.16;100.00
77110;BME280;66062;52.464;16.922;2023-11-19T10:55:34;99921.69;;;1.31;100.00
77110;BME280;66062;52.464;16.922;2023-11-19T10:58:05;99928.22;;;1.38;100.00
77110;BME280;66062;52.464;16.922;2023-11-19T11:00:54;99929.28;;;1.48;100.00
77110;BME280;66062;52.464;16.922;2023-11-19T11:03:23;99914.59;;;1.45;100.00
77110;BME280;66062;52.464;16.922;2023-11-19T11:05:51;99904.06;;;1.45;100.00
77110;BME280;66062;52.464;16.922;2023-11-19T11:08:19;99889.38;;;1.55;100.00
77110;BME280;66062;52.464;16.922;2023-11-19T11:10:55;99888.75;;;1.52;100.00
77110;BME280;66062;52.464;16.922;2023-11-19T11:13:24;99878.47;;;1.61;100.00
77110;BME280;66062;52.464;16.922;2023-11-19T11:15:50;99892.94;;;1.54;100.00
77110;BME280;66062;52.464;16.922;2023-11-19T11:18:16;99884.22;;;1.54;100.00
77110;BME280;66062;52.464;16.922;2023-11-19T11:20:46;99875.69;;;1.50;100.00
77110;BME280;66062;52.464;16.922;2023-11-19T11:26:04;99837.25;;;1.35;100.00
77110;BME280;66062;52.464;16.922;2023-11-19T11:29:20;99850.69;;;1.57;100.00
77110;BME280;66062;52.464;16.922;2023-11-19T11:31:56;99843.91;;;1.53;100.00
77110;BME280;66062;52.464;16.922;2023-11-19T11:34:49;99849.66;;;1.73;100.00
77110;BME280;66062;52.464;16.922;2023-11-19T11:37:23;99846.16;;;1.59;100.00
77110;BME280;66062;52.464;16.922;2023-11-19T11:39:52;99845.13;;;1.62;100.00
77110;BME280;66062;52.464;16.922;2023-11-19T11:50:16;99813.97;;;1.68;100.00
77110;BME280;66062;52.464;16.922;2023-11-19T11:57:49;99808.31;;;1.75;100.00
77110;BME280;66062;52.464;16.922;2023-11-19T12:00:42;99807.97;;;1.54;100.00
77110;BME280;66062;52.464;16.922;2023-11-19T12:03:08;99799.88;;;1.57;100.00
77110;BME280;66062;52.464;16.922;2023-11-19T12:05:44;99781.03;;;1.50;100.00
77110;BME280;66062;52.464;16.922;2023-11-19T12:08:11;99780.84;;;1.66;100.00
77110;BME280;66062;52.464;16.922;2023-11-19T12:10:46;99779.56;;;1.59;100.00
77110;BME280;66062;52.464;16.922;2023-11-19T12:13:15;99777.25;;;1.54;100.00
77110;BME280;66062;52.464;16.922;2023-11-19T12:20:51;99761.06;;;1.60;100.00
77110;BME280;66062;52.464;16.922;2023-11-19T12:23:20;99771.78;;;1.70;100.00
77110;BME280;66062;52.464;16.922;2023-11-19T12:25:45;99766.09;;;1.63;100.00
77110;BME280;66062;52.464;16.922;2023-11-19T12:28:15;99755.59;;;1.63;100.00
77110;BME280;66062;52.464;16.922;2023-11-19T12:30:43;99751.38;;;1.73;100.00
77110;BME280;66062;52.464;16.922;2023-11-19T12:33:09;99745.09;;;1.76;100.00
77110;BME280;66062;52.464;16.922;2023-11-19T12:35:42;99748.66;;;1.75;100.00
77110;BME280;66062;52.464;16.922;2023-11-19T12:38:08;99746.88;;;1.76;100.00
77110;BME280;66062;52.464;16.922;2023-11-19T12:40:43;99746.66;;;1.79;100.00
77110;BME280;66062;52.464;16.922;2023-11-19T12:43:08;99756.94;;;1.94;100.00
77110;BME280;66062;52.464;16.922;2023-11-19T12:45:35;99742.97;;;1.81;100.00
77110;BME280;66062;52.464;16.922;2023-11-19T12:48:08;99768.22;;;1.84;100.00
77110;BME280;66062;52.464;16.922;2023-11-19T12:50:58;99741.50;;;1.90;100.00
77110;BME280;66062;52.464;16.922;2023-11-19T12:53:27;99736.13;;;1.91;100.00
77110;BME280;66062;52.464;16.922;2023-11-19T12:55:53;99738.84;;;2.02;100.00
77110;BME280;66062;52.464;16.922;2023-11-19T12:58:34;99731.91;;;2.01;100.00
77110;BME280;66062;52.464;16.922;2023-11-19T13:01:05;99733.69;;;2.01;100.00
77110;BME280;66062;52.464;16.922;2023-11-19T13:03:36;99731.91;;;2.01;100.00